createdAt,value
2023-05-20T00:01:17.854Z,43.79
2023-05-20T00:03:21.614Z,43.80
2023-05-20T00:05:26.673Z,44.10
2023-05-20T00:07:30.156Z,44.27
2023-05-20T00:09:33.553Z,44.35
2023-05-20T00:11:36.896Z,44.34
2023-05-20T00:13:40.515Z,44.45
2023-05-20T00:15:44.126Z,44.44
2023-05-20T00:17:47.523Z,44.63
2023-05-20T00:19:51.079Z,44.63
2023-05-20T00:21:57.565Z,44.76
2023-05-20T00:24:01.009Z,44.96
2023-05-20T00:26:04.504Z,45.02
2023-05-20T00:28:07.909Z,45.20
2023-05-20T00:30:12.365Z,45.16
2023-05-20T00:32:15.908Z,45.30
2023-05-20T00:34:19.335Z,45.49
2023-05-20T00:36:22.779Z,45.60
2023-05-20T00:38:27.497Z,45.67
2023-05-20T00:40:31.015Z,45.69
2023-05-20T00:42:34.566Z,45.33
2023-05-20T00:44:38.012Z,45.40
2023-05-20T00:46:41.511Z,45.39
2023-05-20T00:48:45.927Z,45.48
2023-05-20T00:50:50.449Z,45.39
2023-05-20T00:52:55.426Z,45.64
2023-05-20T00:55:01.028Z,45.56
2023-05-20T00:57:06.784Z,45.37
2023-05-20T00:59:10.737Z,45.72
2023-05-20T01:01:14.494Z,45.81
2023-05-20T01:03:18.545Z,45.94
2023-05-20T01:05:22.062Z,45.79
2023-05-20T01:07:26.461Z,46.09
2023-05-20T01:09:32.070Z,46.12
2023-05-20T01:11:41.985Z,46.41
2023-05-20T01:13:52.624Z,46.34
2023-05-20T01:15:57.001Z,46.49
2023-05-20T01:18:05.985Z,46.35
2023-05-20T01:20:11.148Z,46.76
2023-05-20T01:22:16.220Z,46.92
2023-05-20T01:24:21.212Z,46.90
2023-05-20T01:26:27.091Z,47.10
2023-05-20T01:28:30.662Z,47.38
2023-05-20T01:30:39.632Z,47.48
2023-05-20T01:32:47.818Z,47.90
2023-05-20T01:34:53.472Z,47.93
2023-05-20T01:36:58.751Z,47.96
2023-05-20T01:39:05.895Z,48.16
2023-05-20T01:41:12.115Z,48.52
2023-05-20T01:43:17.617Z,48.91
2023-05-20T01:45:22.044Z,49.16
2023-05-20T01:47:25.702Z,49.00
2023-05-20T01:49:29.508Z,49.46
2023-05-20T01:51:35.178Z,49.59
2023-05-20T01:53:40.103Z,49.63
2023-05-20T01:55:43.489Z,50.16
2023-05-20T01:57:48.641Z,50.76
2023-05-20T01:59:52.211Z,51.09
2023-05-20T02:01:55.707Z,51.61
2023-05-20T02:03:59.283Z,51.93
2023-05-20T02:06:03.286Z,52.20
2023-05-20T02:08:06.903Z,52.45
2023-05-20T02:10:11.339Z,52.25
2023-05-20T02:12:18.361Z,52.66
2023-05-20T02:14:23.113Z,52.93
2023-05-20T02:16:26.679Z,53.20
2023-05-20T02:18:30.330Z,53.30
2023-05-20T02:20:36.718Z,53.55
2023-05-20T02:22:40.133Z,53.72
2023-05-20T02:24:44.245Z,54.11
2023-05-20T02:26:49.360Z,54.50
2023-05-20T02:28:52.795Z,54.88
2023-05-20T02:30:59.727Z,55.42
2023-05-20T02:33:03.382Z,55.83
2023-05-20T02:35:07.561Z,56.10
2023-05-20T02:37:10.975Z,56.39
2023-05-20T02:39:14.705Z,56.44
2023-05-20T02:41:18.132Z,56.58
2023-05-20T02:43:21.594Z,56.45
2023-05-20T02:45:25.052Z,56.49
2023-05-20T02:47:30.266Z,56.36
2023-05-20T02:49:33.717Z,56.10
2023-05-20T02:51:38.934Z,56.13
2023-05-20T02:53:42.419Z,56.27
2023-05-20T02:55:49.176Z,56.32
2023-05-20T02:57:52.626Z,56.52
2023-05-20T02:59:56.826Z,56.82
2023-05-20T03:02:00.540Z,57.01
2023-05-20T03:04:08.715Z,57.20
2023-05-20T03:06:13.572Z,57.18
2023-05-20T03:08:17.025Z,56.99
2023-05-20T03:10:21.492Z,56.67
2023-05-20T03:12:26.212Z,56.86
2023-05-20T03:14:31.118Z,56.93
2023-05-20T03:16:35.569Z,57.24
2023-05-20T03:18:39.194Z,57.50
2023-05-20T03:20:44.238Z,57.71
2023-05-20T03:22:49.560Z,58.06
2023-05-20T03:24:56.577Z,57.57
2023-05-20T03:27:00.179Z,57.89
2023-05-20T03:29:04.091Z,57.79
2023-05-20T03:31:07.809Z,57.80
2023-05-20T03:33:11.919Z,57.52
2023-05-20T03:35:15.965Z,57.59
2023-05-20T03:37:21.028Z,57.67
2023-05-20T03:39:24.532Z,57.58
2023-05-20T03:41:28.189Z,57.54
2023-05-20T03:43:32.615Z,57.62
2023-05-20T03:45:36.619Z,57.89
2023-05-20T03:47:43.426Z,58.18
2023-05-20T03:49:46.876Z,58.18
2023-05-20T03:51:51.256Z,58.54
2023-05-20T03:53:56.318Z,58.76
2023-05-20T03:55:59.980Z,58.93
2023-05-20T03:58:03.464Z,59.20
2023-05-20T04:00:11.813Z,59.57
2023-05-20T04:02:20.009Z,59.61
2023-05-20T04:04:24.030Z,59.68
2023-05-20T04:06:28.164Z,59.56
2023-05-20T04:08:34.030Z,59.49
2023-05-20T04:10:41.926Z,59.39
2023-05-20T04:12:45.561Z,59.58
2023-05-20T04:14:50.209Z,59.24
2023-05-20T04:16:54.776Z,59.26
2023-05-20T04:18:59.481Z,59.13
2023-05-20T04:21:08.323Z,59.11
2023-05-20T04:23:12.387Z,58.76
2023-05-20T04:25:16.896Z,58.69
2023-05-20T04:27:25.801Z,58.54
2023-05-20T04:29:30.082Z,58.50
2023-05-20T04:31:33.777Z,58.35
2023-05-20T04:33:39.527Z,58.26
2023-05-20T04:35:44.234Z,58.12
2023-05-20T04:37:48.746Z,57.97
2023-05-20T04:39:52.623Z,57.94
2023-05-20T04:41:56.018Z,58.03
2023-05-20T04:44:01.487Z,58.31
2023-05-20T04:46:06.217Z,58.50
2023-05-20T04:48:10.875Z,58.24
2023-05-20T04:50:14.695Z,58.15
2023-05-20T04:52:18.274Z,58.26
2023-05-20T04:54:21.617Z,58.15
2023-05-20T04:56:26.181Z,58.06
2023-05-20T04:58:30.231Z,57.70
2023-05-20T05:00:35.699Z,57.55
2023-05-20T05:02:39.502Z,57.52
2023-05-20T05:04:43.202Z,57.36
2023-05-20T05:06:49.025Z,57.71
2023-05-20T05:08:52.506Z,58.19
2023-05-20T05:10:56.113Z,57.98
2023-05-20T05:13:00.030Z,58.05
2023-05-20T05:15:03.922Z,57.78
2023-05-20T05:17:08.621Z,57.59
2023-05-20T05:19:13.561Z,57.85
2023-05-20T05:21:17.885Z,58.01
2023-05-20T05:23:25.417Z,58.07
2023-05-20T05:25:29.026Z,57.60
2023-05-20T05:27:35.120Z,57.54
2023-05-20T05:29:38.537Z,57.19
2023-05-20T05:31:42.352Z,57.27
2023-05-20T05:33:47.267Z,57.12
2023-05-20T05:35:51.757Z,57.06
2023-05-20T05:37:55.290Z,57.29
2023-05-20T05:39:58.763Z,57.10
2023-05-20T05:42:03.269Z,56.84
2023-05-20T05:44:06.810Z,57.01
2023-05-20T05:46:10.698Z,56.40
2023-05-20T05:48:14.704Z,56.51
2023-05-20T05:50:20.586Z,56.61
2023-05-20T05:52:24.068Z,56.65
2023-05-20T05:54:27.669Z,56.78
2023-05-20T05:56:31.152Z,56.81
2023-05-20T05:58:35.118Z,56.75
2023-05-20T06:00:39.492Z,56.69
2023-05-20T06:02:42.922Z,56.70
2023-05-20T06:04:46.486Z,56.31
2023-05-20T06:06:51.912Z,56.04
2023-05-20T06:08:55.767Z,56.31
2023-05-20T06:10:59.230Z,55.92
2023-05-20T06:13:02.748Z,56.38
2023-05-20T06:15:07.955Z,55.98
2023-05-20T06:17:11.370Z,55.87
2023-05-20T06:19:14.983Z,56.17
2023-05-20T06:21:18.604Z,56.08
2023-05-20T06:23:23.481Z,56.01
2023-05-20T06:25:34.152Z,55.95
2023-05-20T06:27:38.144Z,55.66
2023-05-20T06:29:44.002Z,55.65
2023-05-20T06:31:47.879Z,56.14
2023-05-20T06:33:51.403Z,56.11
2023-05-20T06:35:55.964Z,55.81
2023-05-20T06:38:01.084Z,55.39
2023-05-20T06:40:07.698Z,55.06
2023-05-20T06:42:12.327Z,55.01
2023-05-20T06:44:20.627Z,54.85
2023-05-20T06:46:35.628Z,54.71
2023-05-20T06:48:42.573Z,54.83
2023-05-20T06:50:46.388Z,54.60
2023-05-20T06:52:49.888Z,54.79
2023-05-20T06:54:53.496Z,54.96
2023-05-20T06:56:58.299Z,55.07
2023-05-20T06:59:01.758Z,54.84
2023-05-20T07:01:06.670Z,54.78
2023-05-20T07:03:11.752Z,54.73
2023-05-20T07:05:15.548Z,54.83
2023-05-20T07:07:19.104Z,54.62
2023-05-20T07:09:23.733Z,54.56
2023-05-20T07:11:27.738Z,54.49
2023-05-20T07:13:32.940Z,54.36
2023-05-20T07:15:36.614Z,54.51
2023-05-20T07:17:41.364Z,54.63
2023-05-20T07:19:44.941Z,54.54
2023-05-20T07:21:49.738Z,54.56
2023-05-20T07:24:18.499Z,54.67
2023-05-20T07:26:22.432Z,54.37
2023-05-20T07:28:25.962Z,54.25
2023-05-20T07:30:30.944Z,54.01
2023-05-20T07:32:49.779Z,53.88
2023-05-20T07:34:53.281Z,53.87
2023-05-20T07:36:57.020Z,53.89
2023-05-20T07:39:04.179Z,54.09
2023-05-20T07:41:11.473Z,54.03
2023-05-20T07:43:14.906Z,54.14
2023-05-20T07:45:18.803Z,53.82
2023-05-20T07:47:23.768Z,53.82
2023-05-20T07:49:27.580Z,53.54
2023-05-20T07:51:31.745Z,53.34
2023-05-20T07:53:35.175Z,53.51
2023-05-20T07:55:39.289Z,53.70
2023-05-20T07:57:45.436Z,53.59
2023-05-20T07:59:50.800Z,53.69
2023-05-20T08:01:54.696Z,53.62
2023-05-20T08:04:00.443Z,53.59
2023-05-20T08:06:07.832Z,53.24
2023-05-20T08:08:12.792Z,53.33
2023-05-20T08:10:26.054Z,53.74
2023-05-20T08:12:30.214Z,53.63
2023-05-20T08:14:39.072Z,53.34
2023-05-20T08:16:43.755Z,52.74
2023-05-20T08:18:47.396Z,53.40
2023-05-20T08:20:52.265Z,53.62
2023-05-20T08:22:56.418Z,53.37
2023-05-20T08:25:00.686Z,53.68
2023-05-20T08:27:05.153Z,53.08
2023-05-20T08:29:09.597Z,52.72
2023-05-20T08:31:13.323Z,52.53
2023-05-20T08:33:19.341Z,52.77
2023-05-20T08:35:24.595Z,52.53
2023-05-20T08:37:29.917Z,52.84
2023-05-20T08:39:33.355Z,52.70
2023-05-20T08:41:36.994Z,52.60
2023-05-20T08:43:40.964Z,52.31
2023-05-20T08:45:44.482Z,52.16
2023-05-20T08:47:50.212Z,52.41
2023-05-20T08:49:53.654Z,51.79
2023-05-20T08:51:57.256Z,52.02
2023-05-20T08:54:02.047Z,51.82
2023-05-20T08:56:06.367Z,51.98
2023-05-20T08:58:10.638Z,51.95
2023-05-20T09:00:17.052Z,51.76
2023-05-20T09:02:20.479Z,51.83
2023-05-20T09:04:23.862Z,52.29
2023-05-20T09:06:27.366Z,52.30
2023-05-20T09:08:32.101Z,51.93
2023-05-20T09:10:38.155Z,51.74
2023-05-20T09:12:41.926Z,51.82
2023-05-20T09:14:45.288Z,51.83
2023-05-20T09:16:50.598Z,51.77
2023-05-20T09:18:57.046Z,51.70
2023-05-20T09:21:06.749Z,51.25
2023-05-20T09:23:11.279Z,51.16
2023-05-20T09:25:15.949Z,51.42
2023-05-20T09:27:21.193Z,51.82
2023-05-20T09:29:24.747Z,51.66
2023-05-20T09:31:29.124Z,51.48
2023-05-20T09:33:32.717Z,51.51
2023-05-20T09:35:38.513Z,51.50
2023-05-20T09:37:44.099Z,51.60
2023-05-20T09:39:57.879Z,51.47
2023-05-20T09:42:07.097Z,51.68
2023-05-20T09:44:13.350Z,51.74
2023-05-20T09:46:17.041Z,51.98
2023-05-20T09:48:20.886Z,51.16
2023-05-20T09:50:26.350Z,51.73
2023-05-20T09:52:29.926Z,51.56
2023-05-20T09:54:33.822Z,51.27
2023-05-20T09:56:38.149Z,50.62
2023-05-20T09:58:43.340Z,50.23
2023-05-20T10:00:48.071Z,49.96
2023-05-20T10:02:53.235Z,50.54
2023-05-20T10:04:59.853Z,50.23
2023-05-20T10:07:41.677Z,50.28
2023-05-20T10:09:57.760Z,50.66
2023-05-20T10:12:16.513Z,50.08
2023-05-20T10:14:47.181Z,50.13
2023-05-20T10:17:01.566Z,50.13
2023-05-20T10:19:18.427Z,49.92
2023-05-20T10:21:24.847Z,50.23
2023-05-20T10:23:30.052Z,50.01
2023-05-20T10:25:33.649Z,49.49
2023-05-20T10:27:44.561Z,49.78
2023-05-20T10:29:52.217Z,49.77
2023-05-20T10:31:57.203Z,50.39
2023-05-20T10:34:00.605Z,50.49
2023-05-20T10:36:04.139Z,50.19
2023-05-20T10:38:12.438Z,50.43
2023-05-20T10:40:17.355Z,49.66
2023-05-20T10:42:30.200Z,50.10
2023-05-20T10:44:42.004Z,50.05
2023-05-20T10:47:06.561Z,49.81
2023-05-20T10:49:24.059Z,50.64
2023-05-20T10:51:31.879Z,50.36
2023-05-20T10:53:40.394Z,50.30
2023-05-20T10:55:51.571Z,50.61
2023-05-20T10:57:55.371Z,51.17
2023-05-20T11:00:00.886Z,51.44
2023-05-20T11:02:04.811Z,51.48
2023-05-20T11:04:09.389Z,51.40
2023-05-20T11:06:16.146Z,50.41
2023-05-20T11:08:29.193Z,50.16
2023-05-20T11:10:34.615Z,50.74
2023-05-20T11:12:38.145Z,50.81
2023-05-20T11:14:41.640Z,51.20
2023-05-20T11:16:45.416Z,51.91
2023-05-20T11:18:50.293Z,51.33
2023-05-20T11:20:54.402Z,51.55
2023-05-20T11:22:59.101Z,50.68
2023-05-20T11:25:07.253Z,50.39
2023-05-20T11:27:10.656Z,50.70
2023-05-20T11:29:14.247Z,49.54
2023-05-20T11:31:17.724Z,50.04
2023-05-20T11:33:21.519Z,49.74
2023-05-20T11:35:25.856Z,49.61
2023-05-20T11:39:34.765Z,49.01
2023-05-20T11:41:39.097Z,49.16
2023-05-20T11:43:42.896Z,49.14
2023-05-20T11:45:48.180Z,49.33
2023-05-20T11:48:00.779Z,49.08
2023-05-20T11:50:04.840Z,49.31
2023-05-20T11:52:11.782Z,48.82
2023-05-20T11:54:15.187Z,48.71
2023-05-20T11:56:21.549Z,48.75
2023-05-20T11:58:27.108Z,48.92
2023-05-20T12:00:36.211Z,48.99
2023-05-20T12:02:46.773Z,49.02
2023-05-20T12:04:50.436Z,48.92
2023-05-20T12:06:54.145Z,48.88
2023-05-20T12:08:57.585Z,48.86
2023-05-20T12:11:01.158Z,48.85
2023-05-20T12:13:08.630Z,48.83
2023-05-20T12:17:15.694Z,49.09
2023-05-20T12:19:19.140Z,49.46
2023-05-20T12:21:22.573Z,49.57
2023-05-20T12:23:26.624Z,49.42
2023-05-20T12:25:30.655Z,49.53
2023-05-20T12:27:34.124Z,50.31
2023-05-20T12:29:38.843Z,49.34
2023-05-20T12:31:42.246Z,49.31
2023-05-20T12:33:45.715Z,49.62
2023-05-20T12:35:49.264Z,49.42
2023-05-20T12:37:52.842Z,49.23
2023-05-20T12:39:56.303Z,48.97
2023-05-20T12:41:59.765Z,48.83
2023-05-20T12:44:03.237Z,48.39
2023-05-20T12:46:08.080Z,48.73
2023-05-20T12:48:11.741Z,48.26
2023-05-20T12:50:15.495Z,48.35
2023-05-20T12:52:22.273Z,48.11
2023-05-20T12:54:28.174Z,47.80
2023-05-20T12:56:31.611Z,48.15
2023-05-20T12:58:34.977Z,48.17
2023-05-20T13:00:38.419Z,47.43
2023-05-20T13:02:44.123Z,46.84
2023-05-20T13:04:47.589Z,46.99
2023-05-20T13:06:51.069Z,46.74
2023-05-20T13:08:54.453Z,46.78
2023-05-20T13:10:57.901Z,46.67
2023-05-20T13:13:01.256Z,46.18
2023-05-20T13:15:05.269Z,45.94
2023-05-20T13:17:08.794Z,46.19
2023-05-20T13:19:13.678Z,45.83
2023-05-20T13:21:17.579Z,45.43
2023-05-20T13:23:21.155Z,45.79
2023-05-20T13:25:24.964Z,44.92
2023-05-20T13:27:28.342Z,45.26
2023-05-20T13:29:31.829Z,45.43
2023-05-20T13:31:35.234Z,45.65
2023-05-20T13:33:38.656Z,45.78
2023-05-20T13:35:43.419Z,45.51
2023-05-20T13:37:47.075Z,45.43
2023-05-20T13:39:50.581Z,45.86
2023-05-20T13:41:55.317Z,46.32
2023-05-20T13:43:58.787Z,46.01
2023-05-20T13:46:02.297Z,45.53
2023-05-20T13:48:06.777Z,44.53
2023-05-20T13:50:11.766Z,44.15
2023-05-20T13:52:16.546Z,44.26
2023-05-20T13:54:21.830Z,44.67
2023-05-20T13:56:25.479Z,43.74
2023-05-20T13:58:28.862Z,43.50
2023-05-20T14:00:33.029Z,44.03
2023-05-20T14:02:36.553Z,44.89
2023-05-20T14:04:41.018Z,43.96
2023-05-20T14:06:44.495Z,44.64
2023-05-20T14:08:49.333Z,44.47
2023-05-20T14:10:54.794Z,44.02
2023-05-20T14:13:00.318Z,44.25
2023-05-20T14:15:03.723Z,44.47
2023-05-20T14:17:07.249Z,44.60
2023-05-20T14:19:10.917Z,44.92
2023-05-20T14:21:14.293Z,45.26
2023-05-20T14:23:17.783Z,45.34
2023-05-20T14:25:22.702Z,45.86
2023-05-20T14:27:26.056Z,45.62
2023-05-20T14:29:29.395Z,45.89
2023-05-20T14:31:33.008Z,45.71
2023-05-20T14:33:36.450Z,45.60
2023-05-20T14:35:39.940Z,45.89
2023-05-20T14:37:43.371Z,46.05
2023-05-20T14:39:46.789Z,46.07
2023-05-20T14:41:51.535Z,45.61
2023-05-20T14:43:54.905Z,45.57
2023-05-20T14:45:58.263Z,45.58
2023-05-20T14:48:01.979Z,45.74
2023-05-20T14:50:05.996Z,46.08
2023-05-20T14:52:09.467Z,46.25
2023-05-20T14:54:14.218Z,46.53
2023-05-20T14:56:17.725Z,47.09
2023-05-20T14:58:22.538Z,47.10
2023-05-20T15:00:27.727Z,46.95
2023-05-20T15:02:31.242Z,46.70
2023-05-20T15:04:35.163Z,46.96
2023-05-20T15:06:38.772Z,46.73
2023-05-20T15:08:42.358Z,46.91
2023-05-20T15:10:45.741Z,47.13
2023-05-20T15:12:49.271Z,46.74
2023-05-20T15:14:53.947Z,46.66
2023-05-20T15:16:57.400Z,47.22
2023-05-20T15:19:01.046Z,47.31
2023-05-20T15:21:04.815Z,47.62
2023-05-20T15:23:08.210Z,47.64
2023-05-20T15:25:11.573Z,48.27
2023-05-20T15:27:14.938Z,48.13
2023-05-20T15:29:18.428Z,47.79
2023-05-20T15:31:24.105Z,47.84
2023-05-20T15:33:27.570Z,47.36
2023-05-20T15:35:31.122Z,47.76
2023-05-20T15:37:34.465Z,47.83
2023-05-20T15:39:40.435Z,47.84
2023-05-20T15:41:43.815Z,48.02
2023-05-20T15:43:47.274Z,47.71
2023-05-20T15:45:50.711Z,47.78
2023-05-20T15:47:55.538Z,47.93
2023-05-20T15:49:59.144Z,48.04
2023-05-20T15:52:03.955Z,48.38
2023-05-20T15:54:07.784Z,48.36
2023-05-20T15:56:13.083Z,48.43
2023-05-20T15:58:16.544Z,48.58
2023-05-20T16:00:21.233Z,48.53
2023-05-20T16:02:24.936Z,47.79
2023-05-20T16:04:30.300Z,48.34
2023-05-20T16:06:34.243Z,48.05
2023-05-20T16:08:37.729Z,48.29
2023-05-20T16:10:41.079Z,48.84
2023-05-20T16:12:44.491Z,48.46
2023-05-20T16:14:47.864Z,48.59
2023-05-20T16:16:52.228Z,48.65
2023-05-20T16:18:56.140Z,48.47
2023-05-20T16:21:01.433Z,48.38
2023-05-20T16:23:05.222Z,48.60
2023-05-20T16:25:10.935Z,48.78
2023-05-20T16:27:14.406Z,48.71
2023-05-20T16:29:17.856Z,48.61
2023-05-20T16:31:22.131Z,48.92
2023-05-20T16:33:25.644Z,48.70
2023-05-20T16:35:29.042Z,48.98
2023-05-20T16:37:34.108Z,48.91
2023-05-20T16:39:37.491Z,49.56
2023-05-20T16:41:40.918Z,49.55
2023-05-20T16:43:44.623Z,49.32
2023-05-20T16:45:48.064Z,49.26
2023-05-20T16:47:53.407Z,49.03
2023-05-20T16:49:56.881Z,49.62
2023-05-20T16:52:00.347Z,49.58
2023-05-20T16:54:05.746Z,49.44
2023-05-20T16:56:09.247Z,49.58
2023-05-20T16:58:12.774Z,49.85
2023-05-20T17:00:16.605Z,49.85
2023-05-20T17:02:19.991Z,50.01
2023-05-20T17:04:23.375Z,50.07
2023-05-20T17:06:26.930Z,50.44
2023-05-20T17:08:30.754Z,50.22
2023-05-20T17:10:35.780Z,50.33
2023-05-20T17:12:39.491Z,50.99
2023-05-20T17:14:42.834Z,50.56
2023-05-20T17:16:46.253Z,50.73
2023-05-20T17:18:49.635Z,50.66
2023-05-20T17:20:52.944Z,50.99
2023-05-20T17:22:56.352Z,50.63
2023-05-20T17:24:59.731Z,51.12
2023-05-20T17:27:06.111Z,51.26
2023-05-20T17:29:09.554Z,51.43
2023-05-20T17:31:12.969Z,51.48
2023-05-20T17:33:16.569Z,51.19
2023-05-20T17:35:20.529Z,50.91
2023-05-20T17:37:23.926Z,51.59
2023-05-20T17:39:27.316Z,51.37
2023-05-20T17:41:30.663Z,51.48
2023-05-20T17:43:35.681Z,51.74
2023-05-20T17:45:39.074Z,51.49
2023-05-20T17:47:42.729Z,51.59
2023-05-20T17:49:46.329Z,51.47
2023-05-20T17:51:49.723Z,51.74
2023-05-20T17:53:53.043Z,51.62
2023-05-20T17:55:56.453Z,51.83
2023-05-20T17:58:01.788Z,52.30
2023-05-20T18:00:10.192Z,52.12
2023-05-20T18:02:13.844Z,51.81
2023-05-20T18:04:17.393Z,51.70
2023-05-20T18:06:21.221Z,51.71
2023-05-20T18:08:25.434Z,51.76
2023-05-20T18:10:29.696Z,52.01
2023-05-20T18:12:33.062Z,52.51
2023-05-20T18:14:36.422Z,52.50
2023-05-20T18:16:41.379Z,52.51
2023-05-20T18:18:44.745Z,52.55
2023-05-20T18:20:48.157Z,52.76
2023-05-20T18:22:58.075Z,52.60
2023-05-20T18:25:01.500Z,53.10
2023-05-20T18:27:05.157Z,53.27
2023-05-20T18:29:08.576Z,53.22
2023-05-20T18:31:12.135Z,53.40
2023-05-20T18:33:16.951Z,53.40
2023-05-20T18:35:20.593Z,53.35
2023-05-20T18:37:24.077Z,53.63
2023-05-20T18:39:27.603Z,53.54
2023-05-20T18:41:43.048Z,53.54
2023-05-20T18:43:49.984Z,53.69
2023-05-20T18:45:53.556Z,54.04
2023-05-20T18:47:59.324Z,53.99
2023-05-20T18:50:04.129Z,54.44
2023-05-20T18:52:08.332Z,54.60
2023-05-20T18:54:11.664Z,54.62
2023-05-20T18:56:15.072Z,54.70
2023-05-20T18:58:18.586Z,54.78
2023-05-20T19:00:21.993Z,55.04
2023-05-20T19:02:25.436Z,54.82
2023-05-20T19:04:28.901Z,54.98
2023-05-20T19:06:34.874Z,54.97
2023-05-20T19:08:38.338Z,55.08
2023-05-20T19:10:42.528Z,55.13
2023-05-20T19:12:45.908Z,55.08
2023-05-20T19:14:49.273Z,55.36
2023-05-20T19:16:53.004Z,55.29
2023-05-20T19:18:56.504Z,55.52
2023-05-20T19:20:59.897Z,55.54
2023-05-20T19:23:04.597Z,55.51
2023-05-20T19:25:08.483Z,55.82
2023-05-20T19:27:11.937Z,55.84
2023-05-20T19:29:15.492Z,56.17
2023-05-20T19:31:21.126Z,56.09
2023-05-20T19:33:24.744Z,56.34
2023-05-20T19:35:28.075Z,56.42
2023-05-20T19:37:32.035Z,56.46
2023-05-20T19:39:36.886Z,56.78
2023-05-20T19:41:40.593Z,56.96
2023-05-20T19:43:44.060Z,56.89
2023-05-20T19:45:47.530Z,56.73
2023-05-20T19:47:51.560Z,56.89
2023-05-20T19:49:54.989Z,56.99
2023-05-20T19:51:58.378Z,57.00
2023-05-20T19:54:01.836Z,57.49
2023-05-20T19:56:07.807Z,57.59
2023-05-20T19:58:11.483Z,57.68
2023-05-20T20:00:15.460Z,57.82
2023-05-20T20:02:18.887Z,57.82
2023-05-20T20:04:22.396Z,57.81
2023-05-20T20:06:26.015Z,57.70
2023-05-20T20:08:29.349Z,57.72
2023-05-20T20:10:34.326Z,57.90
2023-05-20T20:12:39.126Z,58.01
2023-05-20T20:14:42.448Z,58.23
2023-05-20T20:16:49.342Z,58.06
2023-05-20T20:18:52.936Z,58.20
2023-05-20T20:20:59.611Z,58.62
2023-05-20T20:23:03.528Z,58.57
2023-05-20T20:25:07.993Z,58.66
2023-05-20T20:27:13.275Z,58.62
2023-05-20T20:29:18.080Z,58.65
2023-05-20T20:31:21.457Z,58.70
2023-05-20T20:33:24.998Z,58.99
2023-05-20T20:35:28.462Z,59.10
2023-05-20T20:37:31.801Z,59.31
2023-05-20T20:39:37.214Z,59.29
2023-05-20T20:41:44.992Z,59.33
2023-05-20T20:43:48.432Z,59.46
2023-05-20T20:45:56.348Z,59.42
2023-05-20T20:48:01.185Z,59.48
2023-05-20T20:50:05.063Z,59.76
2023-05-20T20:52:08.547Z,59.75
2023-05-20T20:54:14.290Z,60.02
2023-05-20T20:56:18.372Z,60.20
2023-05-20T20:58:22.740Z,60.11
2023-05-20T21:00:27.003Z,60.35
2023-05-20T21:02:31.725Z,60.38
2023-05-20T21:04:35.252Z,60.28
2023-05-20T21:06:40.075Z,60.21
2023-05-20T21:08:43.477Z,60.31
2023-05-20T21:10:46.839Z,60.67
2023-05-20T21:12:50.333Z,60.69
2023-05-20T21:14:53.733Z,60.77
2023-05-20T21:16:57.166Z,61.12
2023-05-20T21:19:01.995Z,61.13
2023-05-20T21:21:09.923Z,61.17
2023-05-20T21:23:13.268Z,61.22
2023-05-20T21:25:16.695Z,61.42
2023-05-20T21:27:20.089Z,61.72
2023-05-20T21:29:23.543Z,61.86
2023-05-20T21:31:27.037Z,62.17
2023-05-20T21:33:30.435Z,62.33
2023-05-20T21:35:35.339Z,62.37
2023-05-20T21:37:38.959Z,62.29
2023-05-20T21:39:42.387Z,62.39
2023-05-20T21:41:45.705Z,62.25
2023-05-20T21:43:49.077Z,62.41
2023-05-20T21:45:52.595Z,62.44
2023-05-20T21:47:56.275Z,62.59
2023-05-20T21:49:59.724Z,62.62
2023-05-20T21:52:04.737Z,62.62
2023-05-20T21:54:08.148Z,63.05
2023-05-20T21:56:11.559Z,63.18
2023-05-20T21:58:14.935Z,63.07
2023-05-20T22:00:20.653Z,63.29
2023-05-20T22:02:24.338Z,62.99
2023-05-20T22:04:28.793Z,62.99
2023-05-20T22:06:36.074Z,63.07
2023-05-20T22:08:40.843Z,63.05
2023-05-20T22:10:44.806Z,63.00
2023-05-20T22:12:50.710Z,63.11
2023-05-20T22:14:54.151Z,63.03
2023-05-20T22:16:58.505Z,62.91
2023-05-20T22:19:02.988Z,63.09
2023-05-20T22:21:06.979Z,63.04
2023-05-20T22:23:10.432Z,63.05
2023-05-20T22:25:15.462Z,62.96
2023-05-20T22:27:18.865Z,63.14
2023-05-20T22:29:22.317Z,63.12
2023-05-20T22:31:26.194Z,63.14
2023-05-20T22:33:29.530Z,63.10
2023-05-20T22:35:32.994Z,62.96
2023-05-20T22:37:36.605Z,63.30
2023-05-20T22:39:40.037Z,63.49
2023-05-20T22:41:44.725Z,63.57
2023-05-20T22:43:48.050Z,63.54
2023-05-20T22:45:51.498Z,63.63
2023-05-20T22:47:55.401Z,63.57
2023-05-20T22:50:02.218Z,63.74
2023-05-20T22:52:07.644Z,63.80
2023-05-20T22:54:12.353Z,64.02
2023-05-20T22:56:16.176Z,64.10
2023-05-20T22:58:20.934Z,64.29
2023-05-20T23:00:24.744Z,64.41
2023-05-20T23:02:30.429Z,64.60
2023-05-20T23:04:33.938Z,64.82
2023-05-20T23:06:38.084Z,65.09
2023-05-20T23:08:42.968Z,65.26
2023-05-20T23:10:46.461Z,65.16
2023-05-20T23:12:49.964Z,65.35
2023-05-20T23:14:55.132Z,65.43
2023-05-20T23:16:58.556Z,65.25
2023-05-20T23:19:01.995Z,65.58
2023-05-20T23:21:05.868Z,65.77
2023-05-20T23:23:11.551Z,66.00
2023-05-20T23:25:15.227Z,65.88
2023-05-20T23:27:18.627Z,66.07
2023-05-20T23:29:23.026Z,65.98
2023-05-20T23:31:29.792Z,65.97
2023-05-20T23:33:33.419Z,66.23
2023-05-20T23:35:37.096Z,66.07
2023-05-20T23:37:42.085Z,66.32
2023-05-20T23:39:45.608Z,66.19
2023-05-20T23:41:49.005Z,66.13
2023-05-20T23:43:52.550Z,66.13
2023-05-20T23:45:55.966Z,66.30
2023-05-20T23:48:03.366Z,66.21
2023-05-20T23:50:07.579Z,66.52
2023-05-20T23:52:11.047Z,66.84
2023-05-20T23:54:16.427Z,66.91
2023-05-20T23:56:19.889Z,66.86
2023-05-20T23:58:23.527Z,66.89
